sensor_id;sensor_type;location;lat;lon;timestamp;P1;durP1;ratioP1;P2;durP2;ratioP2
4748;SDS011;2388;53.582;9.962;2023-06-26T00:00:17;8.20;;;7.47;;
4748;SDS011;2388;53.582;9.962;2023-06-26T00:02:43;9.40;;;7.83;;
4748;SDS011;2388;53.582;9.962;2023-06-26T00:05:08;8.80;;;8.00;;
4748;SDS011;2388;53.582;9.962;2023-06-26T00:07:34;9.50;;;8.37;;
4748;SDS011;2388;53.582;9.962;2023-06-26T00:10:00;8.60;;;7.90;;
4748;SDS011;2388;53.582;9.962;2023-06-26T00:12:27;9.27;;;8.27;;
4748;SDS011;2388;53.582;9.962;2023-06-26T00:14:53;9.40;;;8.60;;
4748;SDS011;2388;53.582;9.962;2023-06-26T00:17:18;10.40;;;8.43;;
4748;SDS011;2388;53.582;9.962;2023-06-26T00:19:44;8.87;;;8.00;;
4748;SDS011;2388;53.582;9.962;2023-06-26T00:22:11;8.70;;;7.90;;
4748;SDS011;2388;53.582;9.962;2023-06-26T00:24:37;8.83;;;8.00;;
4748;SDS011;2388;53.582;9.962;2023-06-26T00:27:02;9.13;;;8.33;;
4748;SDS011;2388;53.582;9.962;2023-06-26T00:29:28;9.73;;;7.77;;
4748;SDS011;2388;53.582;9.962;2023-06-26T00:31:53;8.50;;;7.77;;
4748;SDS011;2388;53.582;9.962;2023-06-26T00:34:19;9.10;;;8.27;;
4748;SDS011;2388;53.582;9.962;2023-06-26T00:36:44;9.20;;;8.47;;
4748;SDS011;2388;53.582;9.962;2023-06-26T00:39:10;9.60;;;8.70;;
4748;SDS011;2388;53.582;9.962;2023-06-26T00:41:39;8.73;;;8.00;;
4748;SDS011;2388;53.582;9.962;2023-06-26T00:44:04;9.40;;;8.60;;
4748;SDS011;2388;53.582;9.962;2023-06-26T00:46:31;9.70;;;8.80;;
4748;SDS011;2388;53.582;9.962;2023-06-26T00:48:58;9.53;;;8.73;;
4748;SDS011;2388;53.582;9.962;2023-06-26T00:51:29;8.80;;;8.03;;
4748;SDS011;2388;53.582;9.962;2023-06-26T00:53:56;9.10;;;8.30;;
4748;SDS011;2388;53.582;9.962;2023-06-26T00:56:22;10.13;;;9.20;;
4748;SDS011;2388;53.582;9.962;2023-06-26T00:58:48;8.90;;;8.20;;
4748;SDS011;2388;53.582;9.962;2023-06-26T01:01:14;9.67;;;8.67;;
4748;SDS011;2388;53.582;9.962;2023-06-26T01:03:42;12.20;;;8.43;;
4748;SDS011;2388;53.582;9.962;2023-06-26T01:06:09;9.43;;;8.60;;
4748;SDS011;2388;53.582;9.962;2023-06-26T01:08:38;9.10;;;8.23;;
4748;SDS011;2388;53.582;9.962;2023-06-26T01:11:04;9.50;;;8.70;;
4748;SDS011;2388;53.582;9.962;2023-06-26T01:13:30;9.07;;;8.27;;
4748;SDS011;2388;53.582;9.962;2023-06-26T01:15:57;10.33;;;9.37;;
4748;SDS011;2388;53.582;9.962;2023-06-26T01:18:23;9.13;;;8.33;;
4748;SDS011;2388;53.582;9.962;2023-06-26T01:20:50;11.07;;;8.60;;
4748;SDS011;2388;53.582;9.962;2023-06-26T01:23:17;9.47;;;8.67;;
4748;SDS011;2388;53.582;9.962;2023-06-26T01:28:31;11.60;;;8.10;;
4748;SDS011;2388;53.582;9.962;2023-06-26T01:31:02;9.80;;;9.00;;
4748;SDS011;2388;53.582;9.962;2023-06-26T01:33:29;11.30;;;10.27;;
4748;SDS011;2388;53.582;9.962;2023-06-26T01:35:55;9.93;;;9.13;;
4748;SDS011;2388;53.582;9.962;2023-06-26T01:38:21;9.00;;;8.30;;
4748;SDS011;2388;53.582;9.962;2023-06-26T01:40:51;9.60;;;8.90;;
4748;SDS011;2388;53.582;9.962;2023-06-26T01:45:45;9.87;;;9.00;;
4748;SDS011;2388;53.582;9.962;2023-06-26T01:48:13;9.90;;;9.00;;
4748;SDS011;2388;53.582;9.962;2023-06-26T01:50:42;9.83;;;9.00;;
4748;SDS011;2388;53.582;9.962;2023-06-26T01:53:12;8.50;;;7.80;;
4748;SDS011;2388;53.582;9.962;2023-06-26T01:55:55;8.87;;;8.10;;
4748;SDS011;2388;53.582;9.962;2023-06-26T01:58:33;9.27;;;8.53;;
4748;SDS011;2388;53.582;9.962;2023-06-26T02:01:00;9.20;;;8.40;;
4748;SDS011;2388;53.582;9.962;2023-06-26T02:03:25;10.00;;;9.10;;
4748;SDS011;2388;53.582;9.962;2023-06-26T02:05:51;10.20;;;9.30;;
4748;SDS011;2388;53.582;9.962;2023-06-26T02:08:17;9.73;;;8.80;;
4748;SDS011;2388;53.582;9.962;2023-06-26T02:10:42;9.33;;;8.33;;
4748;SDS011;2388;53.582;9.962;2023-06-26T02:13:08;8.93;;;8.23;;
4748;SDS011;2388;53.582;9.962;2023-06-26T02:15:33;9.63;;;8.77;;
4748;SDS011;2388;53.582;9.962;2023-06-26T02:17:59;9.63;;;8.80;;
4748;SDS011;2388;53.582;9.962;2023-06-26T02:20:24;9.40;;;8.50;;
4748;SDS011;2388;53.582;9.962;2023-06-26T02:22:50;10.57;;;9.40;;
4748;SDS011;2388;53.582;9.962;2023-06-26T02:25:15;9.73;;;8.80;;
4748;SDS011;2388;53.582;9.962;2023-06-26T02:27:42;9.57;;;8.83;;
4748;SDS011;2388;53.582;9.962;2023-06-26T02:30:08;10.37;;;8.67;;
4748;SDS011;2388;53.582;9.962;2023-06-26T02:32:34;10.27;;;9.23;;
4748;SDS011;2388;53.582;9.962;2023-06-26T02:34:59;9.17;;;8.17;;
4748;SDS011;2388;53.582;9.962;2023-06-26T02:37:25;9.30;;;8.30;;
4748;SDS011;2388;53.582;9.962;2023-06-26T02:39:50;10.63;;;8.37;;
4748;SDS011;2388;53.582;9.962;2023-06-26T02:42:16;9.33;;;8.47;;
4748;SDS011;2388;53.582;9.962;2023-06-26T02:44:41;9.70;;;8.80;;
4748;SDS011;2388;53.582;9.962;2023-06-26T02:47:07;10.00;;;9.00;;
4748;SDS011;2388;53.582;9.962;2023-06-26T02:49:32;10.33;;;9.33;;
4748;SDS011;2388;53.582;9.962;2023-06-26T02:51:58;9.60;;;8.80;;
4748;SDS011;2388;53.582;9.962;2023-06-26T02:54:23;9.50;;;8.60;;
4748;SDS011;2388;53.582;9.962;2023-06-26T02:56:49;10.50;;;9.70;;
4748;SDS011;2388;53.582;9.962;2023-06-26T02:59:14;9.93;;;9.00;;
4748;SDS011;2388;53.582;9.962;2023-06-26T03:01:40;9.77;;;8.90;;
4748;SDS011;2388;53.582;9.962;2023-06-26T03:04:05;9.40;;;8.50;;
4748;SDS011;2388;53.582;9.962;2023-06-26T03:06:31;10.30;;;9.47;;
4748;SDS011;2388;53.582;9.962;2023-06-26T03:08:56;9.97;;;9.07;;
4748;SDS011;2388;53.582;9.962;2023-06-26T03:11:22;8.70;;;8.00;;
4748;SDS011;2388;53.582;9.962;2023-06-26T03:13:47;8.97;;;8.07;;
4748;SDS011;2388;53.582;9.962;2023-06-26T03:16:13;8.83;;;8.03;;
4748;SDS011;2388;53.582;9.962;2023-06-26T03:18:38;9.03;;;8.33;;
4748;SDS011;2388;53.582;9.962;2023-06-26T03:21:04;8.77;;;7.97;;
4748;SDS011;2388;53.582;9.962;2023-06-26T03:23:30;9.37;;;8.40;;
4748;SDS011;2388;53.582;9.962;2023-06-26T03:25:55;8.20;;;7.60;;
4748;SDS011;2388;53.582;9.962;2023-06-26T03:28:21;9.00;;;7.73;;
4748;SDS011;2388;53.582;9.962;2023-06-26T03:30:46;8.77;;;8.03;;
4748;SDS011;2388;53.582;9.962;2023-06-26T03:33:12;8.50;;;7.70;;
4748;SDS011;2388;53.582;9.962;2023-06-26T03:35:37;11.33;;;8.47;;
4748;SDS011;2388;53.582;9.962;2023-06-26T03:38:04;8.27;;;7.50;;
4748;SDS011;2388;53.582;9.962;2023-06-26T03:40:30;9.87;;;9.07;;
4748;SDS011;2388;53.582;9.962;2023-06-26T03:42:56;9.67;;;8.67;;
4748;SDS011;2388;53.582;9.962;2023-06-26T03:45:21;9.47;;;8.67;;
4748;SDS011;2388;53.582;9.962;2023-06-26T03:47:47;9.17;;;8.47;;
4748;SDS011;2388;53.582;9.962;2023-06-26T03:50:14;11.93;;;8.37;;
4748;SDS011;2388;53.582;9.962;2023-06-26T03:52:43;8.83;;;8.03;;
4748;SDS011;2388;53.582;9.962;2023-06-26T03:55:09;9.10;;;8.20;;
4748;SDS011;2388;53.582;9.962;2023-06-26T03:57:35;9.37;;;7.80;;
4748;SDS011;2388;53.582;9.962;2023-06-26T04:00:00;9.57;;;8.70;;
4748;SDS011;2388;53.582;9.962;2023-06-26T04:02:26;8.90;;;8.07;;
4748;SDS011;2388;53.582;9.962;2023-06-26T04:04:52;10.80;;;8.93;;
4748;SDS011;2388;53.582;9.962;2023-06-26T04:07:18;9.13;;;8.33;;
4748;SDS011;2388;53.582;9.962;2023-06-26T04:09:44;8.43;;;7.73;;
4748;SDS011;2388;53.582;9.962;2023-06-26T04:12:09;9.40;;;8.40;;
4748;SDS011;2388;53.582;9.962;2023-06-26T04:14:35;9.77;;;8.87;;
4748;SDS011;2388;53.582;9.962;2023-06-26T04:17:00;10.83;;;9.83;;
4748;SDS011;2388;53.582;9.962;2023-06-26T04:19:29;9.40;;;8.50;;
4748;SDS011;2388;53.582;9.962;2023-06-26T04:21:55;10.40;;;7.80;;
4748;SDS011;2388;53.582;9.962;2023-06-26T04:24:21;10.23;;;8.70;;
4748;SDS011;2388;53.582;9.962;2023-06-26T04:26:46;10.37;;;8.40;;
4748;SDS011;2388;53.582;9.962;2023-06-26T04:29:12;9.77;;;8.13;;
4748;SDS011;2388;53.582;9.962;2023-06-26T04:31:38;9.03;;;8.13;;
4748;SDS011;2388;53.582;9.962;2023-06-26T04:34:04;9.67;;;8.80;;
4748;SDS011;2388;53.582;9.962;2023-06-26T04:36:29;8.90;;;8.00;;
4748;SDS011;2388;53.582;9.962;2023-06-26T04:38:56;8.10;;;7.50;;
4748;SDS011;2388;53.582;9.962;2023-06-26T04:41:22;8.90;;;8.00;;
4748;SDS011;2388;53.582;9.962;2023-06-26T04:43:47;9.30;;;8.50;;
4748;SDS011;2388;53.582;9.962;2023-06-26T04:46:13;8.60;;;7.80;;
4748;SDS011;2388;53.582;9.962;2023-06-26T04:48:38;9.03;;;8.23;;
4748;SDS011;2388;53.582;9.962;2023-06-26T04:51:04;8.17;;;7.40;;
4748;SDS011;2388;53.582;9.962;2023-06-26T04:53:29;8.80;;;8.10;;
4748;SDS011;2388;53.582;9.962;2023-06-26T04:55:55;8.30;;;7.60;;
4748;SDS011;2388;53.582;9.962;2023-06-26T04:58:21;8.30;;;7.57;;
4748;SDS011;2388;53.582;9.962;2023-06-26T05:00:46;8.90;;;8.10;;
4748;SDS011;2388;53.582;9.962;2023-06-26T05:03:12;9.93;;;7.97;;
4748;SDS011;2388;53.582;9.962;2023-06-26T05:05:38;7.67;;;6.97;;
4748;SDS011;2388;53.582;9.962;2023-06-26T05:08:23;10.50;;;8.33;;
4748;SDS011;2388;53.582;9.962;2023-06-26T05:10:51;8.30;;;7.50;;
4748;SDS011;2388;53.582;9.962;2023-06-26T05:13:18;10.80;;;8.53;;
4748;SDS011;2388;53.582;9.962;2023-06-26T05:15:44;11.23;;;10.07;;
4748;SDS011;2388;53.582;9.962;2023-06-26T05:18:11;23.20;;;18.60;;
4748;SDS011;2388;53.582;9.962;2023-06-26T05:20:37;27.00;;;17.87;;
4748;SDS011;2388;53.582;9.962;2023-06-26T05:23:03;24.37;;;17.00;;
4748;SDS011;2388;53.582;9.962;2023-06-26T05:25:29;25.20;;;20.47;;
4748;SDS011;2388;53.582;9.962;2023-06-26T05:27:56;12.83;;;11.60;;
4748;SDS011;2388;53.582;9.962;2023-06-26T05:30:23;10.43;;;9.40;;
4748;SDS011;2388;53.582;9.962;2023-06-26T05:32:53;8.10;;;7.33;;
4748;SDS011;2388;53.582;9.962;2023-06-26T05:35:22;9.20;;;7.80;;
4748;SDS011;2388;53.582;9.962;2023-06-26T05:37:48;8.80;;;7.47;;
4748;SDS011;2388;53.582;9.962;2023-06-26T05:40:19;15.60;;;8.13;;
4748;SDS011;2388;53.582;9.962;2023-06-26T05:42:45;8.07;;;7.30;;
4748;SDS011;2388;53.582;9.962;2023-06-26T05:45:11;8.43;;;7.30;;
4748;SDS011;2388;53.582;9.962;2023-06-26T05:47:37;11.17;;;9.40;;
4748;SDS011;2388;53.582;9.962;2023-06-26T05:50:02;22.50;;;18.40;;
4748;SDS011;2388;53.582;9.962;2023-06-26T05:52:29;12.60;;;10.23;;
4748;SDS011;2388;53.582;9.962;2023-06-26T05:54:55;14.40;;;12.77;;
4748;SDS011;2388;53.582;9.962;2023-06-26T05:57:24;21.00;;;13.50;;
4748;SDS011;2388;53.582;9.962;2023-06-26T05:59:52;8.87;;;8.17;;
4748;SDS011;2388;53.582;9.962;2023-06-26T06:02:18;7.97;;;7.23;;
4748;SDS011;2388;53.582;9.962;2023-06-26T06:04:43;8.00;;;7.30;;
4748;SDS011;2388;53.582;9.962;2023-06-26T06:07:09;7.83;;;7.03;;
4748;SDS011;2388;53.582;9.962;2023-06-26T06:09:34;8.43;;;7.17;;
4748;SDS011;2388;53.582;9.962;2023-06-26T06:12:00;11.00;;;7.50;;
4748;SDS011;2388;53.582;9.962;2023-06-26T06:14:26;7.13;;;6.40;;
4748;SDS011;2388;53.582;9.962;2023-06-26T06:16:53;7.20;;;6.70;;
4748;SDS011;2388;53.582;9.962;2023-06-26T06:19:18;8.40;;;7.60;;
4748;SDS011;2388;53.582;9.962;2023-06-26T06:21:44;8.23;;;6.70;;
4748;SDS011;2388;53.582;9.962;2023-06-26T06:24:09;7.20;;;6.60;;
4748;SDS011;2388;53.582;9.962;2023-06-26T06:26:35;6.90;;;6.30;;
4748;SDS011;2388;53.582;9.962;2023-06-26T06:29:00;7.37;;;6.70;;
4748;SDS011;2388;53.582;9.962;2023-06-26T06:31:26;33.63;;;27.03;;
4748;SDS011;2388;53.582;9.962;2023-06-26T06:33:53;67.40;;;52.20;;
4748;SDS011;2388;53.582;9.962;2023-06-26T06:36:19;13.17;;;11.13;;
4748;SDS011;2388;53.582;9.962;2023-06-26T06:38:45;7.73;;;7.00;;
4748;SDS011;2388;53.582;9.962;2023-06-26T06:41:10;9.33;;;6.20;;
4748;SDS011;2388;53.582;9.962;2023-06-26T06:43:36;6.70;;;6.20;;
4748;SDS011;2388;53.582;9.962;2023-06-26T06:46:02;8.43;;;7.17;;
4748;SDS011;2388;53.582;9.962;2023-06-26T06:48:27;7.87;;;7.03;;
4748;SDS011;2388;53.582;9.962;2023-06-26T06:50:53;7.80;;;7.10;;
4748;SDS011;2388;53.582;9.962;2023-06-26T06:53:18;9.07;;;8.13;;
4748;SDS011;2388;53.582;9.962;2023-06-26T06:55:48;7.20;;;6.30;;
4748;SDS011;2388;53.582;9.962;2023-06-26T06:58:13;7.40;;;6.30;;
4748;SDS011;2388;53.582;9.962;2023-06-26T07:00:41;6.77;;;6.27;;
4748;SDS011;2388;53.582;9.962;2023-06-26T07:03:07;7.17;;;6.57;;
4748;SDS011;2388;53.582;9.962;2023-06-26T07:05:32;7.57;;;6.43;;
4748;SDS011;2388;53.582;9.962;2023-06-26T07:07:58;8.17;;;7.37;;
4748;SDS011;2388;53.582;9.962;2023-06-26T07:10:23;11.80;;;8.73;;
4748;SDS011;2388;53.582;9.962;2023-06-26T07:12:49;8.73;;;7.80;;
4748;SDS011;2388;53.582;9.962;2023-06-26T07:15:14;7.73;;;6.97;;
4748;SDS011;2388;53.582;9.962;2023-06-26T07:17:40;7.63;;;7.03;;
4748;SDS011;2388;53.582;9.962;2023-06-26T07:20:05;7.43;;;6.73;;
4748;SDS011;2388;53.582;9.962;2023-06-26T07:22:33;7.00;;;6.30;;
4748;SDS011;2388;53.582;9.962;2023-06-26T07:24:59;7.87;;;7.23;;
4748;SDS011;2388;53.582;9.962;2023-06-26T07:27:24;8.03;;;7.23;;
4748;SDS011;2388;53.582;9.962;2023-06-26T07:29:50;11.70;;;6.77;;
4748;SDS011;2388;53.582;9.962;2023-06-26T07:32:15;7.17;;;6.50;;
4748;SDS011;2388;53.582;9.962;2023-06-26T07:34:41;7.40;;;6.80;;
4748;SDS011;2388;53.582;9.962;2023-06-26T07:37:06;7.63;;;6.73;;
4748;SDS011;2388;53.582;9.962;2023-06-26T07:39:32;7.17;;;6.30;;
4748;SDS011;2388;53.582;9.962;2023-06-26T07:41:57;8.23;;;6.63;;
4748;SDS011;2388;53.582;9.962;2023-06-26T07:44:24;8.20;;;7.50;;
4748;SDS011;2388;53.582;9.962;2023-06-26T07:46:50;7.90;;;7.10;;
4748;SDS011;2388;53.582;9.962;2023-06-26T07:49:15;9.80;;;7.30;;
4748;SDS011;2388;53.582;9.962;2023-06-26T07:51:41;7.50;;;6.90;;
4748;SDS011;2388;53.582;9.962;2023-06-26T07:54:06;6.97;;;6.47;;
4748;SDS011;2388;53.582;9.962;2023-06-26T07:56:34;10.57;;;7.00;;
4748;SDS011;2388;53.582;9.962;2023-06-26T07:59:16;8.70;;;7.30;;
4748;SDS011;2388;53.582;9.962;2023-06-26T08:01:42;9.80;;;8.00;;
4748;SDS011;2388;53.582;9.962;2023-06-26T08:04:07;7.87;;;7.17;;
4748;SDS011;2388;53.582;9.962;2023-06-26T08:06:35;13.27;;;6.60;;
4748;SDS011;2388;53.582;9.962;2023-06-26T08:09:01;8.43;;;6.63;;
4748;SDS011;2388;53.582;9.962;2023-06-26T08:11:29;7.03;;;6.43;;
4748;SDS011;2388;53.582;9.962;2023-06-26T08:13:55;7.23;;;6.60;;
4748;SDS011;2388;53.582;9.962;2023-06-26T08:16:20;7.17;;;6.47;;
4748;SDS011;2388;53.582;9.962;2023-06-26T08:18:46;10.70;;;7.50;;
4748;SDS011;2388;53.582;9.962;2023-06-26T08:21:11;6.80;;;6.20;;
4748;SDS011;2388;53.582;9.962;2023-06-26T08:23:37;7.33;;;6.20;;
4748;SDS011;2388;53.582;9.962;2023-06-26T08:26:02;8.07;;;7.37;;
4748;SDS011;2388;53.582;9.962;2023-06-26T08:28:28;7.17;;;6.57;;
4748;SDS011;2388;53.582;9.962;2023-06-26T08:30:54;9.27;;;6.73;;
4748;SDS011;2388;53.582;9.962;2023-06-26T08:33:19;9.70;;;6.80;;
4748;SDS011;2388;53.582;9.962;2023-06-26T08:35:45;9.73;;;7.27;;
4748;SDS011;2388;53.582;9.962;2023-06-26T08:38:10;9.70;;;6.67;;
4748;SDS011;2388;53.582;9.962;2023-06-26T08:40:36;7.20;;;6.47;;
4748;SDS011;2388;53.582;9.962;2023-06-26T08:43:02;6.33;;;5.90;;
4748;SDS011;2388;53.582;9.962;2023-06-26T08:45:28;7.90;;;6.10;;
4748;SDS011;2388;53.582;9.962;2023-06-26T08:47:53;12.13;;;6.00;;
4748;SDS011;2388;53.582;9.962;2023-06-26T08:50:23;6.87;;;6.07;;
4748;SDS011;2388;53.582;9.962;2023-06-26T08:52:53;13.80;;;9.60;;
4748;SDS011;2388;53.582;9.962;2023-06-26T08:55:38;21.10;;;8.20;;
4748;SDS011;2388;53.582;9.962;2023-06-26T08:58:07;10.27;;;7.73;;
4748;SDS011;2388;53.582;9.962;2023-06-26T09:00:32;8.00;;;7.20;;
4748;SDS011;2388;53.582;9.962;2023-06-26T09:02:58;12.63;;;11.33;;
4748;SDS011;2388;53.582;9.962;2023-06-26T09:05:25;12.33;;;7.30;;
4748;SDS011;2388;53.582;9.962;2023-06-26T09:07:56;9.73;;;7.33;;
4748;SDS011;2388;53.582;9.962;2023-06-26T09:10:22;8.43;;;7.03;;
4748;SDS011;2388;53.582;9.962;2023-06-26T09:12:47;23.47;;;10.60;;
4748;SDS011;2388;53.582;9.962;2023-06-26T09:15:14;25.50;;;13.00;;
4748;SDS011;2388;53.582;9.962;2023-06-26T09:17:40;20.03;;;9.70;;
4748;SDS011;2388;53.582;9.962;2023-06-26T09:20:07;12.40;;;8.60;;
4748;SDS011;2388;53.582;9.962;2023-06-26T09:22:33;18.63;;;9.80;;
4748;SDS011;2388;53.582;9.962;2023-06-26T09:25:02;33.63;;;11.57;;
4748;SDS011;2388;53.582;9.962;2023-06-26T09:27:29;12.33;;;9.10;;
4748;SDS011;2388;53.582;9.962;2023-06-26T09:29:55;10.80;;;7.23;;
4748;SDS011;2388;53.582;9.962;2023-06-26T09:32:26;12.50;;;9.20;;
4748;SDS011;2388;53.582;9.962;2023-06-26T09:34:53;10.37;;;9.33;;
4748;SDS011;2388;53.582;9.962;2023-06-26T09:37:20;18.43;;;13.27;;
4748;SDS011;2388;53.582;9.962;2023-06-26T09:39:47;50.80;;;14.47;;
4748;SDS011;2388;53.582;9.962;2023-06-26T09:42:16;15.80;;;9.50;;
4748;SDS011;2388;53.582;9.962;2023-06-26T09:44:45;15.80;;;9.10;;
4748;SDS011;2388;53.582;9.962;2023-06-26T09:47:12;10.00;;;8.83;;
4748;SDS011;2388;53.582;9.962;2023-06-26T09:49:41;11.47;;;9.90;;
4748;SDS011;2388;53.582;9.962;2023-06-26T09:52:07;12.07;;;9.30;;
4748;SDS011;2388;53.582;9.962;2023-06-26T09:54:33;14.50;;;11.33;;
4748;SDS011;2388;53.582;9.962;2023-06-26T09:57:06;12.10;;;10.03;;
4748;SDS011;2388;53.582;9.962;2023-06-26T09:59:36;16.30;;;10.30;;
4748;SDS011;2388;53.582;9.962;2023-06-26T10:02:02;11.10;;;9.97;;
4748;SDS011;2388;53.582;9.962;2023-06-26T10:04:28;12.60;;;9.60;;
4748;SDS011;2388;53.582;9.962;2023-06-26T10:06:56;13.97;;;9.63;;
4748;SDS011;2388;53.582;9.962;2023-06-26T10:09:23;10.00;;;9.00;;
4748;SDS011;2388;53.582;9.962;2023-06-26T10:12:02;14.67;;;10.83;;
4748;SDS011;2388;53.582;9.962;2023-06-26T10:14:33;10.50;;;9.50;;
4748;SDS011;2388;53.582;9.962;2023-06-26T10:17:03;11.03;;;9.63;;
4748;SDS011;2388;53.582;9.962;2023-06-26T10:19:32;11.77;;;10.10;;
4748;SDS011;2388;53.582;9.962;2023-06-26T10:21:59;10.60;;;9.60;;
4748;SDS011;2388;53.582;9.962;2023-06-26T10:24:28;8.87;;;7.50;;
4748;SDS011;2388;53.582;9.962;2023-06-26T10:26:59;11.00;;;6.77;;
4748;SDS011;2388;53.582;9.962;2023-06-26T10:29:28;12.70;;;6.77;;
4748;SDS011;2388;53.582;9.962;2023-06-26T10:31:55;18.13;;;13.97;;
4748;SDS011;2388;53.582;9.962;2023-06-26T10:34:23;27.60;;;19.20;;
4748;SDS011;2388;53.582;9.962;2023-06-26T10:36:58;18.93;;;15.17;;
4748;SDS011;2388;53.582;9.962;2023-06-26T10:39:25;10.27;;;8.50;;
4748;SDS011;2388;53.582;9.962;2023-06-26T10:41:51;14.60;;;6.67;;
4748;SDS011;2388;53.582;9.962;2023-06-26T10:44:20;8.50;;;5.20;;
4748;SDS011;2388;53.582;9.962;2023-06-26T10:46:52;6.80;;;5.93;;
4748;SDS011;2388;53.582;9.962;2023-06-26T10:49:27;7.53;;;5.30;;
4748;SDS011;2388;53.582;9.962;2023-06-26T10:51:53;7.97;;;4.80;;
4748;SDS011;2388;53.582;9.962;2023-06-26T10:54:21;8.33;;;7.23;;
4748;SDS011;2388;53.582;9.962;2023-06-26T10:56:47;11.63;;;7.20;;
4748;SDS011;2388;53.582;9.962;2023-06-26T10:59:15;11.63;;;7.33;;
4748;SDS011;2388;53.582;9.962;2023-06-26T11:01:42;7.97;;;7.10;;
4748;SDS011;2388;53.582;9.962;2023-06-26T11:04:09;6.70;;;5.93;;
4748;SDS011;2388;53.582;9.962;2023-06-26T11:06:36;10.57;;;6.97;;
4748;SDS011;2388;53.582;9.962;2023-06-26T11:09:10;8.70;;;7.00;;
4748;SDS011;2388;53.582;9.962;2023-06-26T11:14:16;16.03;;;11.40;;
4748;SDS011;2388;53.582;9.962;2023-06-26T11:16:45;13.83;;;7.53;;
4748;SDS011;2388;53.582;9.962;2023-06-26T11:19:12;8.80;;;6.13;;
4748;SDS011;2388;53.582;9.962;2023-06-26T11:21:39;9.27;;;5.07;;
4748;SDS011;2388;53.582;9.962;2023-06-26T11:24:08;9.00;;;5.30;;
4748;SDS011;2388;53.582;9.962;2023-06-26T11:26:38;9.30;;;5.23;;
4748;SDS011;2388;53.582;9.962;2023-06-26T11:29:07;8.83;;;5.60;;
4748;SDS011;2388;53.582;9.962;2023-06-26T11:31:34;13.13;;;5.70;;
4748;SDS011;2388;53.582;9.962;2023-06-26T11:34:03;13.27;;;5.57;;
4748;SDS011;2388;53.582;9.962;2023-06-26T11:36:30;9.43;;;5.17;;
4748;SDS011;2388;53.582;9.962;2023-06-26T11:39:00;9.07;;;5.10;;
4748;SDS011;2388;53.582;9.962;2023-06-26T11:41:29;7.60;;;4.27;;
4748;SDS011;2388;53.582;9.962;2023-06-26T11:43:55;8.40;;;4.20;;
4748;SDS011;2388;53.582;9.962;2023-06-26T11:46:24;11.73;;;4.40;;
4748;SDS011;2388;53.582;9.962;2023-06-26T11:48:50;6.10;;;3.57;;
4748;SDS011;2388;53.582;9.962;2023-06-26T11:51:16;6.00;;;3.83;;
4748;SDS011;2388;53.582;9.962;2023-06-26T11:53:42;8.73;;;3.03;;
4748;SDS011;2388;53.582;9.962;2023-06-26T11:56:09;11.97;;;2.97;;
4748;SDS011;2388;53.582;9.962;2023-06-26T12:01:26;6.07;;;2.90;;
4748;SDS011;2388;53.582;9.962;2023-06-26T12:03:58;6.10;;;2.60;;
4748;SDS011;2388;53.582;9.962;2023-06-26T12:06:26;5.00;;;2.80;;
4748;SDS011;2388;53.582;9.962;2023-06-26T12:08:52;5.70;;;2.50;;
4748;SDS011;2388;53.582;9.962;2023-06-26T12:11:18;6.67;;;2.50;;
4748;SDS011;2388;53.582;9.962;2023-06-26T12:13:45;9.60;;;2.73;;
4748;SDS011;2388;53.582;9.962;2023-06-26T12:16:11;8.57;;;2.83;;
4748;SDS011;2388;53.582;9.962;2023-06-26T12:18:39;4.73;;;2.10;;
4748;SDS011;2388;53.582;9.962;2023-06-26T12:21:05;6.10;;;2.40;;
4748;SDS011;2388;53.582;9.962;2023-06-26T12:23:35;9.83;;;2.90;;
4748;SDS011;2388;53.582;9.962;2023-06-26T12:26:20;20.40;;;12.60;;
4748;SDS011;2388;53.582;9.962;2023-06-26T12:28:46;7.83;;;6.33;;
4748;SDS011;2388;53.582;9.962;2023-06-26T12:31:13;9.50;;;5.03;;
4748;SDS011;2388;53.582;9.962;2023-06-26T12:33:39;5.43;;;2.23;;
4748;SDS011;2388;53.582;9.962;2023-06-26T12:36:05;9.80;;;2.20;;
4748;SDS011;2388;53.582;9.962;2023-06-26T12:38:35;13.10;;;2.67;;
4748;SDS011;2388;53.582;9.962;2023-06-26T12:41:01;8.07;;;3.00;;
4748;SDS011;2388;53.582;9.962;2023-06-26T12:43:26;5.30;;;2.50;;
4748;SDS011;2388;53.582;9.962;2023-06-26T12:45:55;4.73;;;2.00;;
4748;SDS011;2388;53.582;9.962;2023-06-26T12:48:21;9.93;;;2.10;;
4748;SDS011;2388;53.582;9.962;2023-06-26T12:51:07;3.30;;;1.80;;
4748;SDS011;2388;53.582;9.962;2023-06-26T12:53:33;5.93;;;2.20;;
4748;SDS011;2388;53.582;9.962;2023-06-26T12:55:59;3.43;;;2.20;;
4748;SDS011;2388;53.582;9.962;2023-06-26T12:58:24;3.77;;;1.97;;
4748;SDS011;2388;53.582;9.962;2023-06-26T13:00:50;3.13;;;1.40;;
4748;SDS011;2388;53.582;9.962;2023-06-26T13:03:15;4.07;;;2.10;;
4748;SDS011;2388;53.582;9.962;2023-06-26T13:05:41;14.33;;;2.17;;
4748;SDS011;2388;53.582;9.962;2023-06-26T13:08:06;6.43;;;2.10;;
4748;SDS011;2388;53.582;9.962;2023-06-26T13:10:33;7.40;;;1.80;;
4748;SDS011;2388;53.582;9.962;2023-06-26T13:13:00;3.50;;;1.67;;
4748;SDS011;2388;53.582;9.962;2023-06-26T13:15:25;5.80;;;2.23;;
4748;SDS011;2388;53.582;9.962;2023-06-26T13:17:51;5.63;;;2.10;;
4748;SDS011;2388;53.582;9.962;2023-06-26T13:20:17;4.83;;;2.23;;
4748;SDS011;2388;53.582;9.962;2023-06-26T13:22:42;4.43;;;1.70;;
4748;SDS011;2388;53.582;9.962;2023-06-26T13:25:08;4.77;;;2.00;;
4748;SDS011;2388;53.582;9.962;2023-06-26T13:27:33;4.33;;;1.93;;
4748;SDS011;2388;53.582;9.962;2023-06-26T13:29:59;4.47;;;1.37;;
4748;SDS011;2388;53.582;9.962;2023-06-26T13:32:26;4.30;;;2.00;;
4748;SDS011;2388;53.582;9.962;2023-06-26T13:34:52;3.23;;;1.80;;
4748;SDS011;2388;53.582;9.962;2023-06-26T13:37:19;4.90;;;1.50;;
4748;SDS011;2388;53.582;9.962;2023-06-26T13:39:44;4.77;;;2.03;;
4748;SDS011;2388;53.582;9.962;2023-06-26T13:42:14;4.37;;;1.90;;
4748;SDS011;2388;53.582;9.962;2023-06-26T13:44:40;3.57;;;1.43;;
4748;SDS011;2388;53.582;9.962;2023-06-26T13:47:06;6.43;;;1.93;;
4748;SDS011;2388;53.582;9.962;2023-06-26T13:49:32;5.10;;;1.53;;
4748;SDS011;2388;53.582;9.962;2023-06-26T13:51:57;7.60;;;2.10;;
4748;SDS011;2388;53.582;9.962;2023-06-26T13:54:22;4.80;;;1.70;;
4748;SDS011;2388;53.582;9.962;2023-06-26T13:56:48;3.27;;;2.03;;
4748;SDS011;2388;53.582;9.962;2023-06-26T13:59:13;3.03;;;1.50;;
4748;SDS011;2388;53.582;9.962;2023-06-26T14:01:39;3.00;;;1.50;;
4748;SDS011;2388;53.582;9.962;2023-06-26T14:04:07;3.20;;;1.43;;
4748;SDS011;2388;53.582;9.962;2023-06-26T14:06:33;8.90;;;1.83;;
4748;SDS011;2388;53.582;9.962;2023-06-26T14:08:59;3.90;;;1.93;;
4748;SDS011;2388;53.582;9.962;2023-06-26T14:11:25;4.80;;;1.53;;
4748;SDS011;2388;53.582;9.962;2023-06-26T14:13:51;6.07;;;3.53;;
4748;SDS011;2388;53.582;9.962;2023-06-26T14:16:16;13.40;;;3.30;;
4748;SDS011;2388;53.582;9.962;2023-06-26T14:18:43;6.00;;;2.40;;
4748;SDS011;2388;53.582;9.962;2023-06-26T14:21:09;1.87;;;1.60;;
4748;SDS011;2388;53.582;9.962;2023-06-26T14:23:34;3.27;;;1.60;;
4748;SDS011;2388;53.582;9.962;2023-06-26T14:26:00;4.13;;;1.47;;
4748;SDS011;2388;53.582;9.962;2023-06-26T14:28:25;2.90;;;1.20;;
4748;SDS011;2388;53.582;9.962;2023-06-26T14:30:51;5.33;;;1.70;;
4748;SDS011;2388;53.582;9.962;2023-06-26T14:33:16;2.80;;;1.40;;
4748;SDS011;2388;53.582;9.962;2023-06-26T14:35:42;3.03;;;1.60;;
4748;SDS011;2388;53.582;9.962;2023-06-26T14:38:10;5.53;;;1.87;;
4748;SDS011;2388;53.582;9.962;2023-06-26T14:40:48;4.30;;;2.17;;
4748;SDS011;2388;53.582;9.962;2023-06-26T14:43:14;5.90;;;2.00;;
4748;SDS011;2388;53.582;9.962;2023-06-26T14:45:39;7.97;;;2.07;;
4748;SDS011;2388;53.582;9.962;2023-06-26T14:48:05;4.80;;;2.10;;
4748;SDS011;2388;53.582;9.962;2023-06-26T14:50:30;6.17;;;2.20;;
4748;SDS011;2388;53.582;9.962;2023-06-26T14:52:56;6.93;;;1.60;;
4748;SDS011;2388;53.582;9.962;2023-06-26T14:55:21;1.60;;;1.17;;
4748;SDS011;2388;53.582;9.962;2023-06-26T14:57:47;1.50;;;1.40;;
4748;SDS011;2388;53.582;9.962;2023-06-26T15:00:12;5.50;;;1.27;;
4748;SDS011;2388;53.582;9.962;2023-06-26T15:02:38;2.33;;;1.50;;
4748;SDS011;2388;53.582;9.962;2023-06-26T15:05:04;3.40;;;1.10;;
4748;SDS011;2388;53.582;9.962;2023-06-26T15:07:29;2.43;;;1.27;;
4748;SDS011;2388;53.582;9.962;2023-06-26T15:09:55;1.07;;;1.00;;
4748;SDS011;2388;53.582;9.962;2023-06-26T15:12:21;4.77;;;1.73;;
4748;SDS011;2388;53.582;9.962;2023-06-26T15:14:48;7.30;;;1.50;;
4748;SDS011;2388;53.582;9.962;2023-06-26T15:17:14;1.50;;;1.40;;